KSUU/SUU METAR and TAF weather

Enter ICAO airport designator
Station Type Date Time Source
KSUU METAR 2021/07/30 05:58 UTC NOAA

KSUU 300558Z AUTO 23017KT 10SM CLR 20/13 A2981 RMK AO2 SLP101 T02030128 10336 20203 50002 $


Station Type Date Time Source
KSUU Decoded METAR 2021/07/30 05:58 UTC NOAA

Fairfield / Travis Air Force Base, CA, United States (KSUU) 38-16N 121-57W 22M
Jul 30, 2021 - 01:58 AM EDT / 2021.07.30 0558 UTC
Wind: from the SW (230 degrees) at 20 MPH (17 KT):0
Visibility: 10 mile(s):0
Sky conditions: clear
Temperature: 68.5 F (20.3 C)
Dew Point: 55.0 F (12.8 C)
Relative Humidity: 62%
Pressure (altimeter): 29.81 in. Hg (1009 hPa)
Pressure tendency: 0.01 inches (0.2 hPa) higher than three hours ago
ob: KSUU 300558Z AUTO 23017KT 10SM CLR 20/13 A2981 RMK AO2 SLP101 T02030128 10336 20203 50002
cycle: 6

Station Type Date Time Source
KSUU TAF 2021/07/30 03:06 UTC NOAA

TAF KSUU 300300Z 3003/3109 23015G25KT 9999 SKC QNH2978INS
BECMG 3015/3016 23010G15KT 9999 SKC QNH2982INS
BECMG 3022/3023 23015G25KT 9999 SKC QNH2980INS TX33/3023Z TN15/3013Z

Example: see airport list